sensor_id;sensor_type;location;lat;lon;timestamp;P1;durP1;ratioP1;P2;durP2;ratioP2
1505;SDS011;744;51.436;7.356;2023-07-13T00:00:26;5.30;;;1.50;;
1505;SDS011;744;51.436;7.356;2023-07-13T00:02:53;5.20;;;1.70;;
1505;SDS011;744;51.436;7.356;2023-07-13T00:05:21;2.80;;;1.40;;
1505;SDS011;744;51.436;7.356;2023-07-13T00:07:49;2.97;;;1.30;;
1505;SDS011;744;51.436;7.356;2023-07-13T00:10:17;5.17;;;1.70;;
1505;SDS011;744;51.436;7.356;2023-07-13T00:12:44;2.37;;;1.10;;
1505;SDS011;744;51.436;7.356;2023-07-13T00:15:12;5.63;;;1.70;;
1505;SDS011;744;51.436;7.356;2023-07-13T00:17:47;2.70;;;1.33;;
1505;SDS011;744;51.436;7.356;2023-07-13T00:20:14;3.60;;;1.57;;
1505;SDS011;744;51.436;7.356;2023-07-13T00:22:41;5.50;;;2.30;;
1505;SDS011;744;51.436;7.356;2023-07-13T00:25:10;3.23;;;1.47;;
1505;SDS011;744;51.436;7.356;2023-07-13T00:27:38;3.03;;;1.60;;
1505;SDS011;744;51.436;7.356;2023-07-13T00:30:05;4.50;;;1.80;;
1505;SDS011;744;51.436;7.356;2023-07-13T00:32:33;3.00;;;1.50;;
1505;SDS011;744;51.436;7.356;2023-07-13T00:35:00;2.77;;;1.20;;
1505;SDS011;744;51.436;7.356;2023-07-13T00:37:27;2.17;;;1.27;;
1505;SDS011;744;51.436;7.356;2023-07-13T00:39:54;3.33;;;1.63;;
1505;SDS011;744;51.436;7.356;2023-07-13T00:42:21;2.67;;;1.57;;
1505;SDS011;744;51.436;7.356;2023-07-13T00:45:04;3.23;;;1.50;;
1505;SDS011;744;51.436;7.356;2023-07-13T00:47:52;2.30;;;1.13;;
1505;SDS011;744;51.436;7.356;2023-07-13T00:50:20;2.60;;;1.30;;
1505;SDS011;744;51.436;7.356;2023-07-13T00:52:50;4.83;;;1.40;;
1505;SDS011;744;51.436;7.356;2023-07-13T00:55:19;2.30;;;1.63;;
1505;SDS011;744;51.436;7.356;2023-07-13T00:57:47;5.53;;;1.30;;
1505;SDS011;744;51.436;7.356;2023-07-13T01:00:15;3.90;;;1.47;;
1505;SDS011;744;51.436;7.356;2023-07-13T01:02:44;1.80;;;1.10;;
1505;SDS011;744;51.436;7.356;2023-07-13T01:05:13;6.70;;;1.50;;
1505;SDS011;744;51.436;7.356;2023-07-13T01:07:46;4.80;;;2.40;;
1505;SDS011;744;51.436;7.356;2023-07-13T01:10:16;2.73;;;1.30;;
1505;SDS011;744;51.436;7.356;2023-07-13T01:12:44;4.80;;;1.53;;
1505;SDS011;744;51.436;7.356;2023-07-13T01:18:00;3.97;;;1.73;;
1505;SDS011;744;51.436;7.356;2023-07-13T01:20:28;4.00;;;1.00;;
1505;SDS011;744;51.436;7.356;2023-07-13T01:22:55;3.37;;;1.40;;
1505;SDS011;744;51.436;7.356;2023-07-13T01:25:22;5.13;;;1.60;;
1505;SDS011;744;51.436;7.356;2023-07-13T01:27:49;4.07;;;1.37;;
1505;SDS011;744;51.436;7.356;2023-07-13T01:30:16;3.23;;;1.57;;
1505;SDS011;744;51.436;7.356;2023-07-13T01:32:43;2.20;;;1.03;;
1505;SDS011;744;51.436;7.356;2023-07-13T01:35:10;8.33;;;1.37;;
1505;SDS011;744;51.436;7.356;2023-07-13T01:37:38;2.73;;;1.40;;
1505;SDS011;744;51.436;7.356;2023-07-13T01:40:05;5.60;;;1.77;;
1505;SDS011;744;51.436;7.356;2023-07-13T01:42:34;5.40;;;3.20;;
1505;SDS011;744;51.436;7.356;2023-07-13T01:45:01;2.47;;;1.23;;
1505;SDS011;744;51.436;7.356;2023-07-13T01:47:28;1.63;;;1.07;;
1505;SDS011;744;51.436;7.356;2023-07-13T01:49:57;3.23;;;1.80;;
1505;SDS011;744;51.436;7.356;2023-07-13T01:52:24;2.50;;;1.13;;
1505;SDS011;744;51.436;7.356;2023-07-13T01:54:51;2.10;;;1.27;;
1505;SDS011;744;51.436;7.356;2023-07-13T01:57:18;6.33;;;1.40;;
1505;SDS011;744;51.436;7.356;2023-07-13T01:59:44;2.17;;;1.40;;
1505;SDS011;744;51.436;7.356;2023-07-13T02:02:11;6.13;;;2.83;;
1505;SDS011;744;51.436;7.356;2023-07-13T02:04:38;2.80;;;1.40;;
1505;SDS011;744;51.436;7.356;2023-07-13T02:07:05;6.93;;;1.43;;
1505;SDS011;744;51.436;7.356;2023-07-13T02:09:34;1.70;;;1.30;;
1505;SDS011;744;51.436;7.356;2023-07-13T02:12:01;3.23;;;1.40;;
1505;SDS011;744;51.436;7.356;2023-07-13T02:14:28;2.60;;;1.07;;
1505;SDS011;744;51.436;7.356;2023-07-13T02:16:55;4.57;;;1.80;;
1505;SDS011;744;51.436;7.356;2023-07-13T02:19:22;4.73;;;1.80;;
1505;SDS011;744;51.436;7.356;2023-07-13T02:21:48;7.00;;;1.50;;
1505;SDS011;744;51.436;7.356;2023-07-13T02:24:15;2.90;;;1.20;;
1505;SDS011;744;51.436;7.356;2023-07-13T02:26:44;4.50;;;1.40;;
1505;SDS011;744;51.436;7.356;2023-07-13T02:29:11;5.33;;;1.73;;
1505;SDS011;744;51.436;7.356;2023-07-13T02:31:38;5.47;;;1.57;;
1505;SDS011;744;51.436;7.356;2023-07-13T02:34:05;3.77;;;1.17;;
1505;SDS011;744;51.436;7.356;2023-07-13T02:36:32;7.30;;;2.10;;
1505;SDS011;744;51.436;7.356;2023-07-13T02:39:00;4.97;;;1.87;;
1505;SDS011;744;51.436;7.356;2023-07-13T02:41:29;1.30;;;1.00;;
1505;SDS011;744;51.436;7.356;2023-07-13T02:43:57;6.07;;;2.60;;
1505;SDS011;744;51.436;7.356;2023-07-13T02:46:32;3.87;;;1.10;;
1505;SDS011;744;51.436;7.356;2023-07-13T02:49:00;8.83;;;1.60;;
1505;SDS011;744;51.436;7.356;2023-07-13T02:51:27;4.13;;;1.60;;
1505;SDS011;744;51.436;7.356;2023-07-13T02:53:55;2.50;;;1.40;;
1505;SDS011;744;51.436;7.356;2023-07-13T02:56:22;5.07;;;1.93;;
1505;SDS011;744;51.436;7.356;2023-07-13T02:58:51;4.60;;;1.70;;
1505;SDS011;744;51.436;7.356;2023-07-13T03:01:18;3.53;;;1.23;;
1505;SDS011;744;51.436;7.356;2023-07-13T03:03:45;4.93;;;2.13;;
1505;SDS011;744;51.436;7.356;2023-07-13T03:06:13;4.33;;;1.50;;
1505;SDS011;744;51.436;7.356;2023-07-13T03:08:40;3.67;;;1.43;;
1505;SDS011;744;51.436;7.356;2023-07-13T03:11:08;4.40;;;1.53;;
1505;SDS011;744;51.436;7.356;2023-07-13T03:13:38;1.77;;;1.00;;
1505;SDS011;744;51.436;7.356;2023-07-13T03:16:06;5.37;;;1.67;;
1505;SDS011;744;51.436;7.356;2023-07-13T03:18:35;5.30;;;1.53;;
1505;SDS011;744;51.436;7.356;2023-07-13T03:21:03;3.63;;;1.33;;
1505;SDS011;744;51.436;7.356;2023-07-13T03:23:31;3.37;;;1.30;;
1505;SDS011;744;51.436;7.356;2023-07-13T03:26:05;3.30;;;1.33;;
1505;SDS011;744;51.436;7.356;2023-07-13T03:28:35;4.87;;;1.53;;
1505;SDS011;744;51.436;7.356;2023-07-13T03:31:09;2.70;;;1.10;;
1505;SDS011;744;51.436;7.356;2023-07-13T03:33:39;3.53;;;1.80;;
1505;SDS011;744;51.436;7.356;2023-07-13T03:36:06;7.87;;;1.57;;
1505;SDS011;744;51.436;7.356;2023-07-13T03:38:36;6.23;;;1.60;;
1505;SDS011;744;51.436;7.356;2023-07-13T03:41:03;4.47;;;1.60;;
1505;SDS011;744;51.436;7.356;2023-07-13T03:43:30;3.30;;;2.00;;
1505;SDS011;744;51.436;7.356;2023-07-13T03:45:57;5.10;;;1.47;;
1505;SDS011;744;51.436;7.356;2023-07-13T03:48:24;8.83;;;1.60;;
1505;SDS011;744;51.436;7.356;2023-07-13T03:50:51;3.27;;;1.67;;
1505;SDS011;744;51.436;7.356;2023-07-13T03:53:17;5.20;;;1.90;;
1505;SDS011;744;51.436;7.356;2023-07-13T03:55:45;6.50;;;1.60;;
1505;SDS011;744;51.436;7.356;2023-07-13T03:58:32;4.60;;;1.37;;
1505;SDS011;744;51.436;7.356;2023-07-13T04:01:00;3.10;;;1.77;;
1505;SDS011;744;51.436;7.356;2023-07-13T04:03:29;3.70;;;1.80;;
1505;SDS011;744;51.436;7.356;2023-07-13T04:05:59;3.20;;;1.80;;
1505;SDS011;744;51.436;7.356;2023-07-13T04:08:27;4.10;;;2.10;;
1505;SDS011;744;51.436;7.356;2023-07-13T04:10:58;4.60;;;1.80;;
1505;SDS011;744;51.436;7.356;2023-07-13T04:13:27;5.27;;;1.50;;
1505;SDS011;744;51.436;7.356;2023-07-13T04:15:54;5.63;;;2.30;;
1505;SDS011;744;51.436;7.356;2023-07-13T04:18:22;4.53;;;1.90;;
1505;SDS011;744;51.436;7.356;2023-07-13T04:20:49;6.53;;;2.13;;
1505;SDS011;744;51.436;7.356;2023-07-13T04:23:17;3.67;;;1.87;;
1505;SDS011;744;51.436;7.356;2023-07-13T04:25:44;7.73;;;1.93;;
1505;SDS011;744;51.436;7.356;2023-07-13T04:28:12;5.93;;;2.10;;
1505;SDS011;744;51.436;7.356;2023-07-13T04:30:39;5.20;;;2.30;;
1505;SDS011;744;51.436;7.356;2023-07-13T04:33:06;5.00;;;1.67;;
1505;SDS011;744;51.436;7.356;2023-07-13T04:35:34;6.37;;;1.87;;
1505;SDS011;744;51.436;7.356;2023-07-13T04:38:01;6.60;;;1.73;;
1505;SDS011;744;51.436;7.356;2023-07-13T04:40:29;5.47;;;1.90;;
1505;SDS011;744;51.436;7.356;2023-07-13T04:42:56;3.03;;;1.80;;
1505;SDS011;744;51.436;7.356;2023-07-13T04:45:24;4.07;;;1.47;;
1505;SDS011;744;51.436;7.356;2023-07-13T04:47:51;3.77;;;1.30;;
1505;SDS011;744;51.436;7.356;2023-07-13T04:50:18;3.60;;;1.60;;
1505;SDS011;744;51.436;7.356;2023-07-13T04:52:52;3.97;;;1.80;;
1505;SDS011;744;51.436;7.356;2023-07-13T04:55:19;11.00;;;3.30;;
1505;SDS011;744;51.436;7.356;2023-07-13T04:57:47;5.13;;;1.67;;
1505;SDS011;744;51.436;7.356;2023-07-13T05:00:14;4.37;;;1.70;;
1505;SDS011;744;51.436;7.356;2023-07-13T05:02:44;3.50;;;1.60;;
1505;SDS011;744;51.436;7.356;2023-07-13T05:05:14;4.00;;;1.43;;
1505;SDS011;744;51.436;7.356;2023-07-13T05:07:41;11.27;;;3.73;;
1505;SDS011;744;51.436;7.356;2023-07-13T05:10:08;4.43;;;1.60;;
1505;SDS011;744;51.436;7.356;2023-07-13T05:12:35;8.93;;;1.97;;
1505;SDS011;744;51.436;7.356;2023-07-13T05:15:02;3.20;;;1.80;;
1505;SDS011;744;51.436;7.356;2023-07-13T05:17:30;4.70;;;2.70;;
1505;SDS011;744;51.436;7.356;2023-07-13T05:19:57;8.23;;;2.03;;
1505;SDS011;744;51.436;7.356;2023-07-13T05:22:23;4.47;;;1.43;;
1505;SDS011;744;51.436;7.356;2023-07-13T05:24:50;3.83;;;1.93;;
1505;SDS011;744;51.436;7.356;2023-07-13T05:27:17;5.63;;;1.90;;
1505;SDS011;744;51.436;7.356;2023-07-13T05:29:44;3.80;;;1.67;;
1505;SDS011;744;51.436;7.356;2023-07-13T05:32:11;4.90;;;1.70;;
1505;SDS011;744;51.436;7.356;2023-07-13T05:34:38;4.00;;;1.63;;
1505;SDS011;744;51.436;7.356;2023-07-13T05:37:05;6.30;;;2.00;;
1505;SDS011;744;51.436;7.356;2023-07-13T05:39:31;6.30;;;2.13;;
1505;SDS011;744;51.436;7.356;2023-07-13T05:41:58;3.43;;;1.97;;
1505;SDS011;744;51.436;7.356;2023-07-13T05:44:25;4.93;;;1.50;;
1505;SDS011;744;51.436;7.356;2023-07-13T05:46:52;5.57;;;2.03;;
1505;SDS011;744;51.436;7.356;2023-07-13T05:49:19;7.80;;;2.17;;
1505;SDS011;744;51.436;7.356;2023-07-13T05:51:46;3.83;;;2.10;;
1505;SDS011;744;51.436;7.356;2023-07-13T05:54:13;6.00;;;2.23;;
1505;SDS011;744;51.436;7.356;2023-07-13T05:56:40;5.23;;;2.67;;
1505;SDS011;744;51.436;7.356;2023-07-13T05:59:07;11.93;;;3.20;;
1505;SDS011;744;51.436;7.356;2023-07-13T06:01:34;7.23;;;2.30;;
1505;SDS011;744;51.436;7.356;2023-07-13T06:04:01;4.87;;;2.13;;
1505;SDS011;744;51.436;7.356;2023-07-13T06:06:28;5.50;;;2.50;;
1505;SDS011;744;51.436;7.356;2023-07-13T06:08:54;7.93;;;2.40;;
1505;SDS011;744;51.436;7.356;2023-07-13T06:11:25;5.50;;;2.43;;
1505;SDS011;744;51.436;7.356;2023-07-13T06:13:53;7.93;;;3.13;;
1505;SDS011;744;51.436;7.356;2023-07-13T06:16:20;5.83;;;2.80;;
1505;SDS011;744;51.436;7.356;2023-07-13T06:18:47;4.27;;;2.53;;
1505;SDS011;744;51.436;7.356;2023-07-13T06:21:17;10.27;;;3.10;;
1505;SDS011;744;51.436;7.356;2023-07-13T06:23:46;6.57;;;2.80;;
1505;SDS011;744;51.436;7.356;2023-07-13T06:26:20;10.47;;;3.77;;
1505;SDS011;744;51.436;7.356;2023-07-13T06:28:47;6.40;;;2.80;;
1505;SDS011;744;51.436;7.356;2023-07-13T06:31:14;8.20;;;3.73;;
1505;SDS011;744;51.436;7.356;2023-07-13T06:33:42;8.67;;;3.93;;
1505;SDS011;744;51.436;7.356;2023-07-13T06:36:10;10.70;;;3.10;;
1505;SDS011;744;51.436;7.356;2023-07-13T06:38:38;11.33;;;2.80;;
1505;SDS011;744;51.436;7.356;2023-07-13T06:41:06;3.07;;;2.43;;
1505;SDS011;744;51.436;7.356;2023-07-13T06:43:33;11.70;;;6.17;;
1505;SDS011;744;51.436;7.356;2023-07-13T06:46:00;5.97;;;2.90;;
1505;SDS011;744;51.436;7.356;2023-07-13T06:48:28;8.33;;;3.07;;
1505;SDS011;744;51.436;7.356;2023-07-13T06:50:55;7.30;;;3.00;;
1505;SDS011;744;51.436;7.356;2023-07-13T06:53:22;6.83;;;2.30;;
1505;SDS011;744;51.436;7.356;2023-07-13T06:55:49;7.93;;;3.90;;
1505;SDS011;744;51.436;7.356;2023-07-13T06:58:18;8.47;;;4.67;;
1505;SDS011;744;51.436;7.356;2023-07-13T07:00:45;10.17;;;2.97;;
1505;SDS011;744;51.436;7.356;2023-07-13T07:03:13;8.10;;;2.50;;
1505;SDS011;744;51.436;7.356;2023-07-13T07:05:40;12.03;;;4.37;;
1505;SDS011;744;51.436;7.356;2023-07-13T07:08:07;8.40;;;2.70;;
1505;SDS011;744;51.436;7.356;2023-07-13T07:10:34;13.60;;;2.57;;
1505;SDS011;744;51.436;7.356;2023-07-13T07:13:01;7.73;;;2.20;;
1505;SDS011;744;51.436;7.356;2023-07-13T07:15:29;5.53;;;2.27;;
1505;SDS011;744;51.436;7.356;2023-07-13T07:17:56;6.30;;;2.80;;
1505;SDS011;744;51.436;7.356;2023-07-13T07:20:23;4.60;;;2.20;;
1505;SDS011;744;51.436;7.356;2023-07-13T07:22:50;8.53;;;2.73;;
1505;SDS011;744;51.436;7.356;2023-07-13T07:25:17;8.00;;;3.10;;
1505;SDS011;744;51.436;7.356;2023-07-13T07:27:45;5.20;;;2.50;;
1505;SDS011;744;51.436;7.356;2023-07-13T07:30:15;6.70;;;2.17;;
1505;SDS011;744;51.436;7.356;2023-07-13T07:32:44;8.67;;;3.13;;
1505;SDS011;744;51.436;7.356;2023-07-13T07:35:14;6.13;;;3.00;;
1505;SDS011;744;51.436;7.356;2023-07-13T07:37:41;3.33;;;2.27;;
1505;SDS011;744;51.436;7.356;2023-07-13T07:40:11;6.83;;;2.27;;
1505;SDS011;744;51.436;7.356;2023-07-13T07:42:41;10.43;;;1.93;;
1505;SDS011;744;51.436;7.356;2023-07-13T07:45:08;2.80;;;1.67;;
1505;SDS011;744;51.436;7.356;2023-07-13T07:47:37;9.80;;;2.97;;
1505;SDS011;744;51.436;7.356;2023-07-13T07:50:05;8.47;;;2.50;;
1505;SDS011;744;51.436;7.356;2023-07-13T07:52:32;6.17;;;2.03;;
1505;SDS011;744;51.436;7.356;2023-07-13T07:54:59;9.50;;;2.87;;
1505;SDS011;744;51.436;7.356;2023-07-13T07:57:29;6.07;;;2.60;;
1505;SDS011;744;51.436;7.356;2023-07-13T07:59:59;6.07;;;2.67;;
1505;SDS011;744;51.436;7.356;2023-07-13T08:02:29;4.80;;;2.20;;
1505;SDS011;744;51.436;7.356;2023-07-13T08:04:59;4.13;;;2.20;;
1505;SDS011;744;51.436;7.356;2023-07-13T08:07:30;5.87;;;2.30;;
1505;SDS011;744;51.436;7.356;2023-07-13T08:09:57;7.43;;;2.43;;
1505;SDS011;744;51.436;7.356;2023-07-13T08:12:24;5.93;;;2.70;;
1505;SDS011;744;51.436;7.356;2023-07-13T08:14:54;4.70;;;2.40;;
1505;SDS011;744;51.436;7.356;2023-07-13T08:17:24;4.17;;;2.33;;
1505;SDS011;744;51.436;7.356;2023-07-13T08:19:52;5.80;;;2.30;;
1505;SDS011;744;51.436;7.356;2023-07-13T08:22:19;10.30;;;2.50;;
1505;SDS011;744;51.436;7.356;2023-07-13T08:24:46;6.77;;;3.03;;
1505;SDS011;744;51.436;7.356;2023-07-13T08:27:24;5.43;;;2.80;;
1505;SDS011;744;51.436;7.356;2023-07-13T08:29:52;5.73;;;2.97;;
1505;SDS011;744;51.436;7.356;2023-07-13T08:32:20;7.17;;;2.70;;
1505;SDS011;744;51.436;7.356;2023-07-13T08:34:48;5.83;;;2.30;;
1505;SDS011;744;51.436;7.356;2023-07-13T08:37:15;7.30;;;2.30;;
1505;SDS011;744;51.436;7.356;2023-07-13T08:39:43;6.03;;;2.40;;
1505;SDS011;744;51.436;7.356;2023-07-13T08:42:32;3.83;;;2.40;;
1505;SDS011;744;51.436;7.356;2023-07-13T08:47:45;5.03;;;2.30;;
1505;SDS011;744;51.436;7.356;2023-07-13T08:50:17;6.17;;;3.10;;
1505;SDS011;744;51.436;7.356;2023-07-13T08:52:45;6.37;;;2.47;;
1505;SDS011;744;51.436;7.356;2023-07-13T08:55:20;7.63;;;3.67;;
1505;SDS011;744;51.436;7.356;2023-07-13T08:58:11;5.73;;;3.03;;
1505;SDS011;744;51.436;7.356;2023-07-13T09:00:44;5.40;;;1.90;;
1505;SDS011;744;51.436;7.356;2023-07-13T09:03:27;4.97;;;2.30;;
1505;SDS011;744;51.436;7.356;2023-07-13T09:06:03;6.77;;;2.77;;
1505;SDS011;744;51.436;7.356;2023-07-13T09:08:37;7.93;;;2.97;;
1505;SDS011;744;51.436;7.356;2023-07-13T09:16:39;6.70;;;1.93;;
1505;SDS011;744;51.436;7.356;2023-07-13T09:19:09;6.30;;;2.40;;
1505;SDS011;744;51.436;7.356;2023-07-13T09:21:41;4.63;;;2.53;;
1505;SDS011;744;51.436;7.356;2023-07-13T09:27:00;8.20;;;2.27;;
1505;SDS011;744;51.436;7.356;2023-07-13T09:29:34;10.27;;;2.93;;
1505;SDS011;744;51.436;7.356;2023-07-13T09:32:01;8.17;;;2.77;;
1505;SDS011;744;51.436;7.356;2023-07-13T09:34:32;7.10;;;2.43;;
1505;SDS011;744;51.436;7.356;2023-07-13T09:37:00;4.73;;;1.83;;
1505;SDS011;744;51.436;7.356;2023-07-13T09:39:31;3.40;;;2.03;;
1505;SDS011;744;51.436;7.356;2023-07-13T09:44:38;6.30;;;2.70;;
1505;SDS011;744;51.436;7.356;2023-07-13T09:47:16;6.10;;;2.60;;
1505;SDS011;744;51.436;7.356;2023-07-13T09:49:46;9.10;;;3.50;;
1505;SDS011;744;51.436;7.356;2023-07-13T09:52:16;5.17;;;2.13;;
1505;SDS011;744;51.436;7.356;2023-07-13T09:54:48;6.37;;;1.60;;
1505;SDS011;744;51.436;7.356;2023-07-13T09:57:18;4.53;;;1.90;;
1505;SDS011;744;51.436;7.356;2023-07-13T09:59:56;6.80;;;3.00;;
1505;SDS011;744;51.436;7.356;2023-07-13T10:02:29;5.57;;;3.00;;
1505;SDS011;744;51.436;7.356;2023-07-13T10:05:02;8.10;;;3.73;;
1505;SDS011;744;51.436;7.356;2023-07-13T10:07:31;6.50;;;3.83;;
1505;SDS011;744;51.436;7.356;2023-07-13T10:10:12;6.83;;;3.07;;
1505;SDS011;744;51.436;7.356;2023-07-13T10:12:41;4.70;;;3.27;;
1505;SDS011;744;51.436;7.356;2023-07-13T10:15:17;7.23;;;3.07;;
1505;SDS011;744;51.436;7.356;2023-07-13T10:17:50;4.70;;;2.13;;
1505;SDS011;744;51.436;7.356;2023-07-13T10:20:19;5.60;;;2.43;;
1505;SDS011;744;51.436;7.356;2023-07-13T10:23:04;9.30;;;2.53;;
1505;SDS011;744;51.436;7.356;2023-07-13T10:25:38;8.13;;;2.97;;
1505;SDS011;744;51.436;7.356;2023-07-13T10:30:56;6.20;;;2.43;;
1505;SDS011;744;51.436;7.356;2023-07-13T10:33:26;6.87;;;2.53;;
1505;SDS011;744;51.436;7.356;2023-07-13T10:38:52;6.47;;;3.20;;
1505;SDS011;744;51.436;7.356;2023-07-13T10:41:21;7.83;;;2.40;;
1505;SDS011;744;51.436;7.356;2023-07-13T10:43:52;4.43;;;2.40;;
1505;SDS011;744;51.436;7.356;2023-07-13T10:46:22;7.43;;;2.27;;
1505;SDS011;744;51.436;7.356;2023-07-13T10:48:54;5.53;;;2.40;;
1505;SDS011;744;51.436;7.356;2023-07-13T10:51:31;8.10;;;2.73;;
1505;SDS011;744;51.436;7.356;2023-07-13T10:57:34;6.10;;;2.40;;
1505;SDS011;744;51.436;7.356;2023-07-13T10:59:38;5.90;;;2.50;;
1505;SDS011;744;51.436;7.356;2023-07-13T11:02:12;13.33;;;3.60;;
1505;SDS011;744;51.436;7.356;2023-07-13T11:04:53;5.97;;;3.83;;
1505;SDS011;744;51.436;7.356;2023-07-13T11:07:26;2.93;;;1.83;;
1505;SDS011;744;51.436;7.356;2023-07-13T11:09:59;11.80;;;2.80;;
1505;SDS011;744;51.436;7.356;2023-07-13T11:12:48;7.43;;;3.07;;
1505;SDS011;744;51.436;7.356;2023-07-13T11:15:27;6.77;;;3.07;;
1505;SDS011;744;51.436;7.356;2023-07-13T11:18:21;8.77;;;2.23;;
1505;SDS011;744;51.436;7.356;2023-07-13T11:20:51;8.83;;;2.00;;
1505;SDS011;744;51.436;7.356;2023-07-13T11:23:19;8.27;;;2.13;;
1505;SDS011;744;51.436;7.356;2023-07-13T11:25:53;3.90;;;2.00;;
1505;SDS011;744;51.436;7.356;2023-07-13T11:28:24;5.13;;;2.20;;
1505;SDS011;744;51.436;7.356;2023-07-13T11:36:05;4.23;;;1.90;;
1505;SDS011;744;51.436;7.356;2023-07-13T11:44:15;6.17;;;2.07;;
1505;SDS011;744;51.436;7.356;2023-07-13T11:46:47;4.70;;;1.93;;
1505;SDS011;744;51.436;7.356;2023-07-13T11:49:21;2.63;;;2.30;;
1505;SDS011;744;51.436;7.356;2023-07-13T11:51:50;9.63;;;2.63;;
1505;SDS011;744;51.436;7.356;2023-07-13T11:57:06;3.90;;;1.73;;
1505;SDS011;744;51.436;7.356;2023-07-13T11:59:55;6.03;;;2.40;;
1505;SDS011;744;51.436;7.356;2023-07-13T12:02:28;4.97;;;1.87;;
1505;SDS011;744;51.436;7.356;2023-07-13T12:04:57;5.63;;;2.03;;
1505;SDS011;744;51.436;7.356;2023-07-13T12:07:27;5.77;;;1.80;;
1505;SDS011;744;51.436;7.356;2023-07-13T12:10:30;4.17;;;2.40;;
1505;SDS011;744;51.436;7.356;2023-07-13T12:15:22;3.53;;;2.00;;
1505;SDS011;744;51.436;7.356;2023-07-13T12:17:50;3.90;;;1.80;;
1505;SDS011;744;51.436;7.356;2023-07-13T12:20:21;3.80;;;2.20;;
1505;SDS011;744;51.436;7.356;2023-07-13T12:22:52;3.30;;;2.30;;
1505;SDS011;744;51.436;7.356;2023-07-13T12:25:20;4.67;;;2.50;;
1505;SDS011;744;51.436;7.356;2023-07-13T12:27:49;6.53;;;2.30;;
1505;SDS011;744;51.436;7.356;2023-07-13T12:30:30;3.33;;;1.93;;
1505;SDS011;744;51.436;7.356;2023-07-13T12:33:06;3.90;;;1.87;;
1505;SDS011;744;51.436;7.356;2023-07-13T12:35:40;2.83;;;1.47;;
1505;SDS011;744;51.436;7.356;2023-07-13T12:38:15;3.67;;;1.50;;
1505;SDS011;744;51.436;7.356;2023-07-13T12:40:43;3.83;;;1.80;;
1505;SDS011;744;51.436;7.356;2023-07-13T12:43:13;3.33;;;1.50;;
1505;SDS011;744;51.436;7.356;2023-07-13T12:48:37;3.20;;;1.80;;
1505;SDS011;744;51.436;7.356;2023-07-13T12:51:15;2.83;;;1.73;;
1505;SDS011;744;51.436;7.356;2023-07-13T12:53:47;4.63;;;1.60;;
1505;SDS011;744;51.436;7.356;2023-07-13T12:56:21;4.90;;;1.87;;
1505;SDS011;744;51.436;7.356;2023-07-13T12:58:49;3.40;;;1.87;;
1505;SDS011;744;51.436;7.356;2023-07-13T13:01:21;4.17;;;1.93;;
1505;SDS011;744;51.436;7.356;2023-07-13T13:03:50;4.00;;;1.63;;
1505;SDS011;744;51.436;7.356;2023-07-13T13:08:50;5.13;;;2.13;;
1505;SDS011;744;51.436;7.356;2023-07-13T13:11:28;2.87;;;1.53;;
1505;SDS011;744;51.436;7.356;2023-07-13T13:13:57;3.73;;;1.50;;
1505;SDS011;744;51.436;7.356;2023-07-13T13:19:05;4.80;;;2.50;;
1505;SDS011;744;51.436;7.356;2023-07-13T13:21:45;2.43;;;1.60;;
1505;SDS011;744;51.436;7.356;2023-07-13T13:24:13;5.10;;;2.13;;
1505;SDS011;744;51.436;7.356;2023-07-13T13:26:42;3.03;;;1.90;;
1505;SDS011;744;51.436;7.356;2023-07-13T13:29:14;3.83;;;1.63;;
1505;SDS011;744;51.436;7.356;2023-07-13T13:31:51;2.80;;;1.70;;
1505;SDS011;744;51.436;7.356;2023-07-13T13:34:19;8.03;;;2.13;;
1505;SDS011;744;51.436;7.356;2023-07-13T13:36:50;4.53;;;2.33;;
1505;SDS011;744;51.436;7.356;2023-07-13T13:41:48;4.70;;;2.00;;
1505;SDS011;744;51.436;7.356;2023-07-13T13:44:16;3.03;;;1.90;;
1505;SDS011;744;51.436;7.356;2023-07-13T13:46:45;4.50;;;1.77;;
1505;SDS011;744;51.436;7.356;2023-07-13T13:49:15;4.40;;;2.03;;
1505;SDS011;744;51.436;7.356;2023-07-13T13:51:45;6.63;;;2.63;;
1505;SDS011;744;51.436;7.356;2023-07-13T13:54:15;7.80;;;2.43;;
1505;SDS011;744;51.436;7.356;2023-07-13T13:56:43;5.30;;;1.97;;
1505;SDS011;744;51.436;7.356;2023-07-13T13:59:12;5.93;;;2.33;;
1505;SDS011;744;51.436;7.356;2023-07-13T14:01:39;5.23;;;3.60;;
1505;SDS011;744;51.436;7.356;2023-07-13T14:04:08;2.50;;;2.30;;
1505;SDS011;744;51.436;7.356;2023-07-13T14:06:47;5.90;;;2.10;;
1505;SDS011;744;51.436;7.356;2023-07-13T14:09:16;4.53;;;3.30;;
1505;SDS011;744;51.436;7.356;2023-07-13T14:11:45;4.47;;;2.57;;
1505;SDS011;744;51.436;7.356;2023-07-13T14:14:23;4.30;;;2.50;;
1505;SDS011;744;51.436;7.356;2023-07-13T14:16:51;2.63;;;2.03;;
1505;SDS011;744;51.436;7.356;2023-07-13T14:19:21;6.50;;;2.57;;
1505;SDS011;744;51.436;7.356;2023-07-13T14:21:49;6.43;;;2.70;;
1505;SDS011;744;51.436;7.356;2023-07-13T14:24:19;6.73;;;2.67;;
1505;SDS011;744;51.436;7.356;2023-07-13T14:26:47;3.80;;;2.43;;
1505;SDS011;744;51.436;7.356;2023-07-13T14:29:17;4.47;;;2.60;;
1505;SDS011;744;51.436;7.356;2023-07-13T14:31:50;3.77;;;2.40;;
1505;SDS011;744;51.436;7.356;2023-07-13T14:34:17;3.63;;;2.20;;
1505;SDS011;744;51.436;7.356;2023-07-13T14:36:44;5.07;;;2.20;;
1505;SDS011;744;51.436;7.356;2023-07-13T14:39:20;3.53;;;2.50;;
1505;SDS011;744;51.436;7.356;2023-07-13T14:41:50;4.10;;;2.83;;
1505;SDS011;744;51.436;7.356;2023-07-13T14:44:20;8.83;;;3.00;;
1505;SDS011;744;51.436;7.356;2023-07-13T14:46:51;6.53;;;2.87;;
1505;SDS011;744;51.436;7.356;2023-07-13T14:52:01;8.60;;;5.53;;
1505;SDS011;744;51.436;7.356;2023-07-13T14:54:36;7.90;;;3.27;;
1505;SDS011;744;51.436;7.356;2023-07-13T14:57:09;4.83;;;3.53;;
1505;SDS011;744;51.436;7.356;2023-07-13T14:59:43;11.43;;;4.27;;
1505;SDS011;744;51.436;7.356;2023-07-13T15:04:44;11.00;;;3.60;;
1505;SDS011;744;51.436;7.356;2023-07-13T15:07:11;6.07;;;3.30;;
1505;SDS011;744;51.436;7.356;2023-07-13T15:09:41;8.13;;;3.30;;
1505;SDS011;744;51.436;7.356;2023-07-13T15:12:08;4.10;;;3.30;;
1505;SDS011;744;51.436;7.356;2023-07-13T15:14:35;6.03;;;3.50;;
1505;SDS011;744;51.436;7.356;2023-07-13T15:17:02;7.90;;;4.10;;
1505;SDS011;744;51.436;7.356;2023-07-13T15:19:30;4.53;;;3.60;;
1505;SDS011;744;51.436;7.356;2023-07-13T15:21:57;7.03;;;3.40;;
1505;SDS011;744;51.436;7.356;2023-07-13T15:24:24;8.83;;;3.57;;
1505;SDS011;744;51.436;7.356;2023-07-13T15:26:52;7.13;;;4.20;;
1505;SDS011;744;51.436;7.356;2023-07-13T15:29:19;4.47;;;3.70;;
1505;SDS011;744;51.436;7.356;2023-07-13T15:31:45;6.90;;;3.47;;
1505;SDS011;744;51.436;7.356;2023-07-13T15:34:13;5.10;;;3.10;;
1505;SDS011;744;51.436;7.356;2023-07-13T15:36:42;4.33;;;3.53;;
1505;SDS011;744;51.436;7.356;2023-07-13T15:39:13;4.80;;;3.00;;
1505;SDS011;744;51.436;7.356;2023-07-13T15:41:42;6.93;;;4.10;;
1505;SDS011;744;51.436;7.356;2023-07-13T15:44:47;7.57;;;4.57;;
1505;SDS011;744;51.436;7.356;2023-07-13T15:47:09;3.80;;;3.10;;
1505;SDS011;744;51.436;7.356;2023-07-13T15:49:38;4.67;;;3.80;;
1505;SDS011;744;51.436;7.356;2023-07-13T15:52:10;5.20;;;3.70;;
1505;SDS011;744;51.436;7.356;2023-07-13T15:54:42;4.80;;;3.10;;
1505;SDS011;744;51.436;7.356;2023-07-13T15:57:09;11.20;;;4.03;;
1505;SDS011;744;51.436;7.356;2023-07-13T15:59:38;4.10;;;3.60;;
1505;SDS011;744;51.436;7.356;2023-07-13T16:02:16;7.87;;;5.03;;
1505;SDS011;744;51.436;7.356;2023-07-13T16:04:45;6.20;;;4.00;;
1505;SDS011;744;51.436;7.356;2023-07-13T16:07:13;4.30;;;3.80;;
1505;SDS011;744;51.436;7.356;2023-07-13T16:09:44;4.60;;;3.50;;
1505;SDS011;744;51.436;7.356;2023-07-13T16:12:13;5.20;;;3.53;;
1505;SDS011;744;51.436;7.356;2023-07-13T16:14:41;6.90;;;4.80;;
1505;SDS011;744;51.436;7.356;2023-07-13T16:17:11;15.20;;;6.60;;
1505;SDS011;744;51.436;7.356;2023-07-13T16:19:40;5.50;;;4.57;;
1505;SDS011;744;51.436;7.356;2023-07-13T16:22:14;6.13;;;4.80;;
1505;SDS011;744;51.436;7.356;2023-07-13T16:24:43;5.90;;;3.47;;
1505;SDS011;744;51.436;7.356;2023-07-13T16:27:11;8.77;;;4.30;;
1505;SDS011;744;51.436;7.356;2023-07-13T16:29:39;7.03;;;5.10;;
1505;SDS011;744;51.436;7.356;2023-07-13T16:34:37;10.53;;;6.10;;
1505;SDS011;744;51.436;7.356;2023-07-13T16:37:26;7.13;;;5.47;;
1505;SDS011;744;51.436;7.356;2023-07-13T16:39:55;6.77;;;4.40;;
1505;SDS011;744;51.436;7.356;2023-07-13T16:42:25;4.83;;;3.93;;
1505;SDS011;744;51.436;7.356;2023-07-13T16:44:52;11.03;;;4.50;;